sensor_id;sensor_type;location;lat;lon;timestamp;temperature;humidity
37340;DHT22;23223;51.006;7.610;2023-08-24T00:02:01;16.30;99.90
37340;DHT22;23223;51.006;7.610;2023-08-24T00:04:27;16.30;99.90
37340;DHT22;23223;51.006;7.610;2023-08-24T00:06:53;16.30;99.90
37340;DHT22;23223;51.006;7.610;2023-08-24T00:09:19;16.20;99.90
37340;DHT22;23223;51.006;7.610;2023-08-24T00:11:45;16.20;99.90
37340;DHT22;23223;51.006;7.610;2023-08-24T00:14:11;16.20;99.90
37340;DHT22;23223;51.006;7.610;2023-08-24T00:16:37;16.30;99.90
37340;DHT22;23223;51.006;7.610;2023-08-24T00:19:02;16.50;99.90
37340;DHT22;23223;51.006;7.610;2023-08-24T00:21:28;16.40;99.90
37340;DHT22;23223;51.006;7.610;2023-08-24T00:23:54;16.40;99.90
37340;DHT22;23223;51.006;7.610;2023-08-24T00:26:20;16.20;99.90
37340;DHT22;23223;51.006;7.610;2023-08-24T00:28:46;16.10;99.90
37340;DHT22;23223;51.006;7.610;2023-08-24T00:31:11;16.30;99.90
37340;DHT22;23223;51.006;7.610;2023-08-24T00:33:37;16.60;99.90
37340;DHT22;23223;51.006;7.610;2023-08-24T00:36:05;16.80;99.90
37340;DHT22;23223;51.006;7.610;2023-08-24T00:38:31;16.90;99.90
37340;DHT22;23223;51.006;7.610;2023-08-24T00:40:57;16.80;99.90
37340;DHT22;23223;51.006;7.610;2023-08-24T00:43:27;16.60;99.90
37340;DHT22;23223;51.006;7.610;2023-08-24T00:45:55;16.40;99.90
37340;DHT22;23223;51.006;7.610;2023-08-24T00:48:22;16.20;99.90
37340;DHT22;23223;51.006;7.610;2023-08-24T00:50:52;16.00;99.90
37340;DHT22;23223;51.006;7.610;2023-08-24T00:53:18;15.80;99.90
37340;DHT22;23223;51.006;7.610;2023-08-24T00:55:45;15.60;99.90
37340;DHT22;23223;51.006;7.610;2023-08-24T00:58:13;15.50;99.90
37340;DHT22;23223;51.006;7.610;2023-08-24T01:00:39;15.40;99.90
37340;DHT22;23223;51.006;7.610;2023-08-24T01:03:04;15.30;99.90
37340;DHT22;23223;51.006;7.610;2023-08-24T01:05:30;15.30;99.90
37340;DHT22;23223;51.006;7.610;2023-08-24T01:07:56;15.30;99.90
37340;DHT22;23223;51.006;7.610;2023-08-24T01:10:22;15.40;99.90
37340;DHT22;23223;51.006;7.610;2023-08-24T01:13:08;15.60;99.90
37340;DHT22;23223;51.006;7.610;2023-08-24T01:15:51;15.80;99.90
37340;DHT22;23223;51.006;7.610;2023-08-24T01:18:21;15.80;99.90
37340;DHT22;23223;51.006;7.610;2023-08-24T01:20:48;15.70;99.90
37340;DHT22;23223;51.006;7.610;2023-08-24T01:26:10;15.50;99.90
37340;DHT22;23223;51.006;7.610;2023-08-24T01:28:37;15.70;99.90
37340;DHT22;23223;51.006;7.610;2023-08-24T01:31:07;15.60;99.90
37340;DHT22;23223;51.006;7.610;2023-08-24T01:33:33;15.50;99.90
37340;DHT22;23223;51.006;7.610;2023-08-24T01:35:59;15.40;99.90
37340;DHT22;23223;51.006;7.610;2023-08-24T01:38:25;15.40;99.90
37340;DHT22;23223;51.006;7.610;2023-08-24T01:41:13;15.40;99.90
37340;DHT22;23223;51.006;7.610;2023-08-24T01:43:42;15.30;99.90
37340;DHT22;23223;51.006;7.610;2023-08-24T01:46:12;15.10;99.90
37340;DHT22;23223;51.006;7.610;2023-08-24T01:48:40;15.10;99.90
37340;DHT22;23223;51.006;7.610;2023-08-24T01:51:06;15.10;99.90
37340;DHT22;23223;51.006;7.610;2023-08-24T01:53:33;15.30;99.90
37340;DHT22;23223;51.006;7.610;2023-08-24T01:55:58;15.30;99.90
37340;DHT22;23223;51.006;7.610;2023-08-24T01:58:24;15.10;99.90
37340;DHT22;23223;51.006;7.610;2023-08-24T02:00:50;15.00;99.90
37340;DHT22;23223;51.006;7.610;2023-08-24T02:03:15;15.00;99.90
37340;DHT22;23223;51.006;7.610;2023-08-24T02:05:41;14.90;99.90
37340;DHT22;23223;51.006;7.610;2023-08-24T02:08:07;14.90;99.90
37340;DHT22;23223;51.006;7.610;2023-08-24T02:10:32;15.10;99.90
37340;DHT22;23223;51.006;7.610;2023-08-24T02:12:58;15.10;99.90
37340;DHT22;23223;51.006;7.610;2023-08-24T02:15:23;15.10;99.90
37340;DHT22;23223;51.006;7.610;2023-08-24T02:17:49;15.20;99.90
37340;DHT22;23223;51.006;7.610;2023-08-24T02:20:15;15.20;99.90
37340;DHT22;23223;51.006;7.610;2023-08-24T02:22:40;15.10;99.90
37340;DHT22;23223;51.006;7.610;2023-08-24T02:25:06;15.00;99.90
37340;DHT22;23223;51.006;7.610;2023-08-24T02:27:33;14.90;99.90
37340;DHT22;23223;51.006;7.610;2023-08-24T02:29:58;14.80;99.90
37340;DHT22;23223;51.006;7.610;2023-08-24T02:32:24;14.70;99.90
37340;DHT22;23223;51.006;7.610;2023-08-24T02:34:49;14.60;99.90
37340;DHT22;23223;51.006;7.610;2023-08-24T02:37:15;14.70;99.90
37340;DHT22;23223;51.006;7.610;2023-08-24T02:39:41;14.80;99.90
37340;DHT22;23223;51.006;7.610;2023-08-24T02:42:06;15.10;99.90
37340;DHT22;23223;51.006;7.610;2023-08-24T02:44:32;15.10;99.90
37340;DHT22;23223;51.006;7.610;2023-08-24T02:46:58;15.00;99.90
37340;DHT22;23223;51.006;7.610;2023-08-24T02:49:23;14.80;99.90
37340;DHT22;23223;51.006;7.610;2023-08-24T02:51:49;14.70;99.90
37340;DHT22;23223;51.006;7.610;2023-08-24T02:54:15;14.60;99.90
37340;DHT22;23223;51.006;7.610;2023-08-24T02:56:40;14.50;99.90
37340;DHT22;23223;51.006;7.610;2023-08-24T02:59:06;14.60;99.90
37340;DHT22;23223;51.006;7.610;2023-08-24T03:01:32;15.20;99.90
37340;DHT22;23223;51.006;7.610;2023-08-24T03:03:57;15.80;99.90
37340;DHT22;23223;51.006;7.610;2023-08-24T03:06:23;16.10;99.90
37340;DHT22;23223;51.006;7.610;2023-08-24T03:08:51;16.20;99.90
37340;DHT22;23223;51.006;7.610;2023-08-24T03:11:17;16.20;99.90
37340;DHT22;23223;51.006;7.610;2023-08-24T03:13:43;16.10;99.90
37340;DHT22;23223;51.006;7.610;2023-08-24T03:16:09;15.90;99.90
37340;DHT22;23223;51.006;7.610;2023-08-24T03:18:34;15.70;99.90
37340;DHT22;23223;51.006;7.610;2023-08-24T03:21:01;15.60;99.90
37340;DHT22;23223;51.006;7.610;2023-08-24T03:23:26;15.50;99.90
37340;DHT22;23223;51.006;7.610;2023-08-24T03:25:52;15.80;99.90
37340;DHT22;23223;51.006;7.610;2023-08-24T03:28:18;16.20;99.90
37340;DHT22;23223;51.006;7.610;2023-08-24T03:30:50;16.20;99.90
37340;DHT22;23223;51.006;7.610;2023-08-24T03:33:16;16.10;99.90
37340;DHT22;23223;51.006;7.610;2023-08-24T03:35:42;16.70;99.90
37340;DHT22;23223;51.006;7.610;2023-08-24T03:38:08;16.80;99.90
37340;DHT22;23223;51.006;7.610;2023-08-24T03:40:34;16.60;99.90
37340;DHT22;23223;51.006;7.610;2023-08-24T03:43:01;16.40;99.90
37340;DHT22;23223;51.006;7.610;2023-08-24T03:45:28;16.30;99.90
37340;DHT22;23223;51.006;7.610;2023-08-24T03:47:54;16.20;99.90
37340;DHT22;23223;51.006;7.610;2023-08-24T03:50:20;16.10;99.90
37340;DHT22;23223;51.006;7.610;2023-08-24T03:52:45;16.10;99.90
37340;DHT22;23223;51.006;7.610;2023-08-24T03:55:11;16.10;99.90
37340;DHT22;23223;51.006;7.610;2023-08-24T03:57:37;15.90;99.90
37340;DHT22;23223;51.006;7.610;2023-08-24T04:00:04;15.90;99.90
37340;DHT22;23223;51.006;7.610;2023-08-24T04:02:32;15.90;99.90
37340;DHT22;23223;51.006;7.610;2023-08-24T04:04:58;16.10;99.90
37340;DHT22;23223;51.006;7.610;2023-08-24T04:07:23;16.30;99.90
37340;DHT22;23223;51.006;7.610;2023-08-24T04:09:49;16.50;99.90
37340;DHT22;23223;51.006;7.610;2023-08-24T04:12:14;16.70;99.90
37340;DHT22;23223;51.006;7.610;2023-08-24T04:14:40;17.10;99.90
37340;DHT22;23223;51.006;7.610;2023-08-24T04:17:06;17.70;99.90
37340;DHT22;23223;51.006;7.610;2023-08-24T04:19:31;18.00;99.90
37340;DHT22;23223;51.006;7.610;2023-08-24T04:21:57;18.10;99.90
37340;DHT22;23223;51.006;7.610;2023-08-24T04:24:22;17.90;99.90
37340;DHT22;23223;51.006;7.610;2023-08-24T04:26:50;17.50;99.90
37340;DHT22;23223;51.006;7.610;2023-08-24T04:29:17;17.30;99.90
37340;DHT22;23223;51.006;7.610;2023-08-24T04:31:42;17.20;99.90
37340;DHT22;23223;51.006;7.610;2023-08-24T04:34:08;17.10;99.90
37340;DHT22;23223;51.006;7.610;2023-08-24T04:36:34;17.10;99.90
37340;DHT22;23223;51.006;7.610;2023-08-24T04:39:00;17.10;99.90
37340;DHT22;23223;51.006;7.610;2023-08-24T04:41:27;17.10;99.90
37340;DHT22;23223;51.006;7.610;2023-08-24T04:43:52;17.10;99.90
37340;DHT22;23223;51.006;7.610;2023-08-24T04:46:18;17.10;99.90
37340;DHT22;23223;51.006;7.610;2023-08-24T04:48:44;16.90;99.90
37340;DHT22;23223;51.006;7.610;2023-08-24T04:51:09;16.70;99.90
37340;DHT22;23223;51.006;7.610;2023-08-24T04:53:35;16.50;99.90
37340;DHT22;23223;51.006;7.610;2023-08-24T04:56:00;16.40;99.90
37340;DHT22;23223;51.006;7.610;2023-08-24T04:58:26;16.30;99.90
37340;DHT22;23223;51.006;7.610;2023-08-24T05:00:52;16.20;99.90
37340;DHT22;23223;51.006;7.610;2023-08-24T05:03:17;16.40;99.90
37340;DHT22;23223;51.006;7.610;2023-08-24T05:05:45;16.60;99.90
37340;DHT22;23223;51.006;7.610;2023-08-24T05:08:11;16.50;99.90
37340;DHT22;23223;51.006;7.610;2023-08-24T05:10:37;16.30;99.90
37340;DHT22;23223;51.006;7.610;2023-08-24T05:13:02;16.20;99.90
37340;DHT22;23223;51.006;7.610;2023-08-24T05:15:28;16.10;99.90
37340;DHT22;23223;51.006;7.610;2023-08-24T05:17:54;15.90;99.90
37340;DHT22;23223;51.006;7.610;2023-08-24T05:20:22;15.70;99.90
37340;DHT22;23223;51.006;7.610;2023-08-24T05:22:48;15.60;99.90
37340;DHT22;23223;51.006;7.610;2023-08-24T05:25:14;15.40;99.90
37340;DHT22;23223;51.006;7.610;2023-08-24T05:27:42;15.40;99.90
37340;DHT22;23223;51.006;7.610;2023-08-24T05:30:08;15.30;99.90
37340;DHT22;23223;51.006;7.610;2023-08-24T05:32:34;15.20;99.90
37340;DHT22;23223;51.006;7.610;2023-08-24T05:35:04;15.30;99.90
37340;DHT22;23223;51.006;7.610;2023-08-24T05:37:30;15.20;99.90
37340;DHT22;23223;51.006;7.610;2023-08-24T05:39:56;15.20;99.90
37340;DHT22;23223;51.006;7.610;2023-08-24T05:42:21;15.20;99.90
37340;DHT22;23223;51.006;7.610;2023-08-24T05:44:47;15.20;99.90
37340;DHT22;23223;51.006;7.610;2023-08-24T05:47:12;15.30;99.90
37340;DHT22;23223;51.006;7.610;2023-08-24T05:49:38;15.70;99.90
37340;DHT22;23223;51.006;7.610;2023-08-24T05:52:04;16.60;99.90
37340;DHT22;23223;51.006;7.610;2023-08-24T05:54:29;17.30;99.90
37340;DHT22;23223;51.006;7.610;2023-08-24T05:56:55;17.80;99.90
37340;DHT22;23223;51.006;7.610;2023-08-24T05:59:20;18.20;99.90
37340;DHT22;23223;51.006;7.610;2023-08-24T06:01:46;18.50;99.90
37340;DHT22;23223;51.006;7.610;2023-08-24T06:04:12;18.60;99.90
37340;DHT22;23223;51.006;7.610;2023-08-24T06:06:37;18.60;99.90
37340;DHT22;23223;51.006;7.610;2023-08-24T06:09:03;18.30;99.90
37340;DHT22;23223;51.006;7.610;2023-08-24T06:11:32;18.10;99.90
37340;DHT22;23223;51.006;7.610;2023-08-24T06:13:58;17.80;99.90
37340;DHT22;23223;51.006;7.610;2023-08-24T06:16:24;17.80;99.90
37340;DHT22;23223;51.006;7.610;2023-08-24T06:18:50;17.80;99.90
37340;DHT22;23223;51.006;7.610;2023-08-24T06:21:16;17.70;99.90
37340;DHT22;23223;51.006;7.610;2023-08-24T06:23:42;17.60;99.90
37340;DHT22;23223;51.006;7.610;2023-08-24T06:26:08;17.50;99.90
37340;DHT22;23223;51.006;7.610;2023-08-24T06:28:33;17.50;99.90
37340;DHT22;23223;51.006;7.610;2023-08-24T06:31:00;17.50;99.90
37340;DHT22;23223;51.006;7.610;2023-08-24T06:33:33;17.50;99.90
37340;DHT22;23223;51.006;7.610;2023-08-24T06:35:58;17.40;99.90
37340;DHT22;23223;51.006;7.610;2023-08-24T06:38:25;17.40;99.90
37340;DHT22;23223;51.006;7.610;2023-08-24T06:40:51;17.30;99.90
37340;DHT22;23223;51.006;7.610;2023-08-24T06:43:16;17.30;99.90
37340;DHT22;23223;51.006;7.610;2023-08-24T06:45:43;17.40;99.90
37340;DHT22;23223;51.006;7.610;2023-08-24T06:48:09;17.50;99.90
37340;DHT22;23223;51.006;7.610;2023-08-24T06:50:35;17.80;99.90
37340;DHT22;23223;51.006;7.610;2023-08-24T06:53:02;18.00;99.90
37340;DHT22;23223;51.006;7.610;2023-08-24T06:55:29;18.30;99.90
37340;DHT22;23223;51.006;7.610;2023-08-24T06:57:54;18.40;99.90
37340;DHT22;23223;51.006;7.610;2023-08-24T07:00:21;18.80;99.90
37340;DHT22;23223;51.006;7.610;2023-08-24T07:02:47;19.50;99.90
37340;DHT22;23223;51.006;7.610;2023-08-24T07:05:14;20.30;99.90
37340;DHT22;23223;51.006;7.610;2023-08-24T07:07:40;21.00;99.90
37340;DHT22;23223;51.006;7.610;2023-08-24T07:10:08;21.70;99.90
37340;DHT22;23223;51.006;7.610;2023-08-24T07:12:34;22.30;99.90
37340;DHT22;23223;51.006;7.610;2023-08-24T07:15:00;22.80;99.90
37340;DHT22;23223;51.006;7.610;2023-08-24T07:17:25;23.10;99.90
37340;DHT22;23223;51.006;7.610;2023-08-24T07:19:51;23.50;99.90
37340;DHT22;23223;51.006;7.610;2023-08-24T07:22:17;23.90;99.90
37340;DHT22;23223;51.006;7.610;2023-08-24T07:24:42;24.20;99.90
37340;DHT22;23223;51.006;7.610;2023-08-24T07:27:08;24.50;99.90
37340;DHT22;23223;51.006;7.610;2023-08-24T07:29:34;24.60;99.90
37340;DHT22;23223;51.006;7.610;2023-08-24T07:32:00;25.00;99.90
37340;DHT22;23223;51.006;7.610;2023-08-24T07:34:25;25.00;99.90
37340;DHT22;23223;51.006;7.610;2023-08-24T07:36:51;25.20;99.90
37340;DHT22;23223;51.006;7.610;2023-08-24T07:39:17;25.50;99.90
37340;DHT22;23223;51.006;7.610;2023-08-24T07:41:42;26.10;99.90
37340;DHT22;23223;51.006;7.610;2023-08-24T07:44:08;26.80;99.90
37340;DHT22;23223;51.006;7.610;2023-08-24T07:46:34;27.50;99.90
37340;DHT22;23223;51.006;7.610;2023-08-24T07:48:59;28.00;99.90
37340;DHT22;23223;51.006;7.610;2023-08-24T07:51:25;28.50;99.90
37340;DHT22;23223;51.006;7.610;2023-08-24T07:53:51;28.80;99.90
37340;DHT22;23223;51.006;7.610;2023-08-24T07:56:18;29.00;99.90
37340;DHT22;23223;51.006;7.610;2023-08-24T07:58:44;29.10;99.90
37340;DHT22;23223;51.006;7.610;2023-08-24T08:01:11;29.30;99.90
37340;DHT22;23223;51.006;7.610;2023-08-24T08:03:36;29.60;99.90
37340;DHT22;23223;51.006;7.610;2023-08-24T08:06:02;29.80;99.90
37340;DHT22;23223;51.006;7.610;2023-08-24T08:08:28;29.50;99.90
37340;DHT22;23223;51.006;7.610;2023-08-24T08:10:59;29.50;99.90
37340;DHT22;23223;51.006;7.610;2023-08-24T08:13:25;29.70;99.90
37340;DHT22;23223;51.006;7.610;2023-08-24T08:15:51;30.00;99.90
37340;DHT22;23223;51.006;7.610;2023-08-24T08:18:17;30.10;99.90
37340;DHT22;23223;51.006;7.610;2023-08-24T08:20:42;30.40;99.90
37340;DHT22;23223;51.006;7.610;2023-08-24T08:23:08;30.50;99.90
37340;DHT22;23223;51.006;7.610;2023-08-24T08:25:33;30.70;99.90
37340;DHT22;23223;51.006;7.610;2023-08-24T08:27:59;30.90;99.90
37340;DHT22;23223;51.006;7.610;2023-08-24T08:30:25;30.80;99.90
37340;DHT22;23223;51.006;7.610;2023-08-24T08:32:50;30.80;99.90
37340;DHT22;23223;51.006;7.610;2023-08-24T08:35:18;30.60;99.90
37340;DHT22;23223;51.006;7.610;2023-08-24T08:37:44;31.00;99.90
37340;DHT22;23223;51.006;7.610;2023-08-24T08:40:11;31.10;99.90
37340;DHT22;23223;51.006;7.610;2023-08-24T08:42:37;31.20;99.90
37340;DHT22;23223;51.006;7.610;2023-08-24T08:45:07;31.40;99.90
37340;DHT22;23223;51.006;7.610;2023-08-24T08:47:33;31.40;99.90
37340;DHT22;23223;51.006;7.610;2023-08-24T08:50:01;31.30;99.90
37340;DHT22;23223;51.006;7.610;2023-08-24T08:52:28;31.30;99.90
37340;DHT22;23223;51.006;7.610;2023-08-24T08:54:54;31.40;99.90
37340;DHT22;23223;51.006;7.610;2023-08-24T08:57:21;31.50;99.90
37340;DHT22;23223;51.006;7.610;2023-08-24T08:59:48;31.30;99.90
37340;DHT22;23223;51.006;7.610;2023-08-24T09:02:16;30.80;99.90
37340;DHT22;23223;51.006;7.610;2023-08-24T09:04:45;30.90;99.90
37340;DHT22;23223;51.006;7.610;2023-08-24T09:07:13;30.60;99.90
37340;DHT22;23223;51.006;7.610;2023-08-24T09:09:39;31.20;99.90
37340;DHT22;23223;51.006;7.610;2023-08-24T09:12:05;31.20;99.90
37340;DHT22;23223;51.006;7.610;2023-08-24T09:14:32;31.30;99.90
37340;DHT22;23223;51.006;7.610;2023-08-24T09:16:58;31.90;99.90
37340;DHT22;23223;51.006;7.610;2023-08-24T09:19:30;32.20;99.90
37340;DHT22;23223;51.006;7.610;2023-08-24T09:21:57;32.60;99.90
37340;DHT22;23223;51.006;7.610;2023-08-24T09:24:34;32.50;99.90
37340;DHT22;23223;51.006;7.610;2023-08-24T09:27:15;32.50;99.90
37340;DHT22;23223;51.006;7.610;2023-08-24T09:29:42;33.10;99.90
37340;DHT22;23223;51.006;7.610;2023-08-24T09:32:10;33.40;99.90
37340;DHT22;23223;51.006;7.610;2023-08-24T09:34:37;33.60;99.90
37340;DHT22;23223;51.006;7.610;2023-08-24T09:37:03;33.40;96.50
37340;DHT22;23223;51.006;7.610;2023-08-24T09:39:29;33.80;99.10
37340;DHT22;23223;51.006;7.610;2023-08-24T09:42:00;33.70;95.60
37340;DHT22;23223;51.006;7.610;2023-08-24T09:44:28;33.50;95.40
37340;DHT22;23223;51.006;7.610;2023-08-24T09:46:54;33.30;93.10
37340;DHT22;23223;51.006;7.610;2023-08-24T09:49:19;33.30;93.10
37340;DHT22;23223;51.006;7.610;2023-08-24T09:51:46;33.40;93.80
37340;DHT22;23223;51.006;7.610;2023-08-24T09:54:12;33.70;93.70
37340;DHT22;23223;51.006;7.610;2023-08-24T09:56:40;33.30;93.10
37340;DHT22;23223;51.006;7.610;2023-08-24T09:59:13;33.30;91.80
37340;DHT22;23223;51.006;7.610;2023-08-24T10:01:44;33.30;91.10
37340;DHT22;23223;51.006;7.610;2023-08-24T10:04:10;33.30;93.40
37340;DHT22;23223;51.006;7.610;2023-08-24T10:06:39;33.50;93.20
37340;DHT22;23223;51.006;7.610;2023-08-24T10:09:09;32.70;92.50
37340;DHT22;23223;51.006;7.610;2023-08-24T10:11:48;32.20;93.80
37340;DHT22;23223;51.006;7.610;2023-08-24T10:14:20;32.50;94.20
37340;DHT22;23223;51.006;7.610;2023-08-24T10:16:47;32.50;93.40
37340;DHT22;23223;51.006;7.610;2023-08-24T10:19:13;32.50;93.40
37340;DHT22;23223;51.006;7.610;2023-08-24T10:21:42;32.50;93.90
37340;DHT22;23223;51.006;7.610;2023-08-24T10:24:10;32.30;93.20
37340;DHT22;23223;51.006;7.610;2023-08-24T10:26:39;32.70;93.50
37340;DHT22;23223;51.006;7.610;2023-08-24T10:29:06;33.00;94.40
37340;DHT22;23223;51.006;7.610;2023-08-24T10:31:33;33.60;92.90
37340;DHT22;23223;51.006;7.610;2023-08-24T10:34:00;33.20;92.00
37340;DHT22;23223;51.006;7.610;2023-08-24T10:36:27;33.10;92.60
37340;DHT22;23223;51.006;7.610;2023-08-24T10:38:56;33.20;93.40
37340;DHT22;23223;51.006;7.610;2023-08-24T10:41:27;33.30;91.50
37340;DHT22;23223;51.006;7.610;2023-08-24T10:44:04;33.30;91.70
37340;DHT22;23223;51.006;7.610;2023-08-24T10:46:34;33.40;93.60
37340;DHT22;23223;51.006;7.610;2023-08-24T10:49:04;33.30;92.80
37340;DHT22;23223;51.006;7.610;2023-08-24T10:51:30;33.10;92.70
37340;DHT22;23223;51.006;7.610;2023-08-24T10:54:00;33.30;91.70
37340;DHT22;23223;51.006;7.610;2023-08-24T10:56:36;33.00;91.70
37340;DHT22;23223;51.006;7.610;2023-08-24T10:59:19;32.70;93.00
37340;DHT22;23223;51.006;7.610;2023-08-24T11:01:55;32.20;92.00
37340;DHT22;23223;51.006;7.610;2023-08-24T11:04:21;32.40;93.20
37340;DHT22;23223;51.006;7.610;2023-08-24T11:06:54;32.30;94.60
37340;DHT22;23223;51.006;7.610;2023-08-24T11:09:21;32.20;93.20
37340;DHT22;23223;51.006;7.610;2023-08-24T11:12:01;31.90;92.50
37340;DHT22;23223;51.006;7.610;2023-08-24T11:14:28;31.80;93.20
37340;DHT22;23223;51.006;7.610;2023-08-24T11:17:00;31.80;92.60
37340;DHT22;23223;51.006;7.610;2023-08-24T11:19:27;31.70;91.70
37340;DHT22;23223;51.006;7.610;2023-08-24T11:21:53;31.90;92.60
37340;DHT22;23223;51.006;7.610;2023-08-24T11:24:19;31.80;92.20
37340;DHT22;23223;51.006;7.610;2023-08-24T11:26:49;31.90;93.50
37340;DHT22;23223;51.006;7.610;2023-08-24T11:29:15;31.90;91.40
37340;DHT22;23223;51.006;7.610;2023-08-24T11:31:41;32.00;91.80
37340;DHT22;23223;51.006;7.610;2023-08-24T11:34:07;32.40;91.40
37340;DHT22;23223;51.006;7.610;2023-08-24T11:36:49;32.50;91.40
37340;DHT22;23223;51.006;7.610;2023-08-24T11:39:19;32.70;91.30
37340;DHT22;23223;51.006;7.610;2023-08-24T11:42:05;32.50;92.20
37340;DHT22;23223;51.006;7.610;2023-08-24T11:44:49;32.50;90.40
37340;DHT22;23223;51.006;7.610;2023-08-24T11:47:15;32.30;90.20
37340;DHT22;23223;51.006;7.610;2023-08-24T11:49:42;32.10;90.60
37340;DHT22;23223;51.006;7.610;2023-08-24T11:52:08;32.00;91.90
37340;DHT22;23223;51.006;7.610;2023-08-24T11:54:36;31.80;91.10
37340;DHT22;23223;51.006;7.610;2023-08-24T11:57:07;31.40;91.80
37340;DHT22;23223;51.006;7.610;2023-08-24T11:59:34;31.30;91.60
37340;DHT22;23223;51.006;7.610;2023-08-24T12:02:02;31.00;92.20
37340;DHT22;23223;51.006;7.610;2023-08-24T12:04:38;30.80;92.80
37340;DHT22;23223;51.006;7.610;2023-08-24T12:07:13;30.70;94.40
37340;DHT22;23223;51.006;7.610;2023-08-24T12:09:40;30.40;93.70
37340;DHT22;23223;51.006;7.610;2023-08-24T12:12:05;30.60;94.20
37340;DHT22;23223;51.006;7.610;2023-08-24T12:14:43;30.70;93.70
37340;DHT22;23223;51.006;7.610;2023-08-24T12:17:09;30.80;93.60
37340;DHT22;23223;51.006;7.610;2023-08-24T12:19:35;31.00;93.10
37340;DHT22;23223;51.006;7.610;2023-08-24T12:22:01;30.80;92.80
37340;DHT22;23223;51.006;7.610;2023-08-24T12:24:26;30.70;95.20
37340;DHT22;23223;51.006;7.610;2023-08-24T12:26:56;30.70;94.80
37340;DHT22;23223;51.006;7.610;2023-08-24T12:29:23;30.80;96.30
37340;DHT22;23223;51.006;7.610;2023-08-24T12:31:48;31.10;93.50
37340;DHT22;23223;51.006;7.610;2023-08-24T12:34:15;31.10;94.20
37340;DHT22;23223;51.006;7.610;2023-08-24T12:36:41;31.20;93.50
37340;DHT22;23223;51.006;7.610;2023-08-24T12:39:11;31.30;92.80
37340;DHT22;23223;51.006;7.610;2023-08-24T12:41:38;31.30;93.30
37340;DHT22;23223;51.006;7.610;2023-08-24T12:44:04;31.20;93.20
37340;DHT22;23223;51.006;7.610;2023-08-24T12:46:31;31.00;93.80
37340;DHT22;23223;51.006;7.610;2023-08-24T12:48:57;30.80;95.00
37340;DHT22;23223;51.006;7.610;2023-08-24T12:51:23;31.00;94.90
37340;DHT22;23223;51.006;7.610;2023-08-24T12:53:50;31.10;94.10
37340;DHT22;23223;51.006;7.610;2023-08-24T12:56:15;31.10;94.90
37340;DHT22;23223;51.006;7.610;2023-08-24T12:58:41;30.80;94.10
37340;DHT22;23223;51.006;7.610;2023-08-24T13:01:07;30.60;94.70
37340;DHT22;23223;51.006;7.610;2023-08-24T13:03:33;30.50;95.80
37340;DHT22;23223;51.006;7.610;2023-08-24T13:05:59;30.40;96.50
37340;DHT22;23223;51.006;7.610;2023-08-24T13:08:25;30.10;96.60
37340;DHT22;23223;51.006;7.610;2023-08-24T13:10:52;29.90;97.80
37340;DHT22;23223;51.006;7.610;2023-08-24T13:13:17;29.70;99.90
37340;DHT22;23223;51.006;7.610;2023-08-24T13:15:51;29.40;99.90
37340;DHT22;23223;51.006;7.610;2023-08-24T13:18:17;29.00;99.90
37340;DHT22;23223;51.006;7.610;2023-08-24T13:20:43;28.70;99.90
37340;DHT22;23223;51.006;7.610;2023-08-24T13:23:09;28.40;99.90
37340;DHT22;23223;51.006;7.610;2023-08-24T13:25:34;27.90;99.90
37340;DHT22;23223;51.006;7.610;2023-08-24T13:28:00;27.80;99.90
37340;DHT22;23223;51.006;7.610;2023-08-24T13:30:26;27.80;99.90
37340;DHT22;23223;51.006;7.610;2023-08-24T13:32:52;27.90;99.90
37340;DHT22;23223;51.006;7.610;2023-08-24T13:35:18;27.90;99.90
37340;DHT22;23223;51.006;7.610;2023-08-24T13:37:44;28.00;99.90
37340;DHT22;23223;51.006;7.610;2023-08-24T13:40:10;28.10;99.90
37340;DHT22;23223;51.006;7.610;2023-08-24T13:42:35;28.20;99.90
37340;DHT22;23223;51.006;7.610;2023-08-24T13:45:01;28.30;99.90
37340;DHT22;23223;51.006;7.610;2023-08-24T13:47:28;28.30;99.90
37340;DHT22;23223;51.006;7.610;2023-08-24T13:49:54;28.30;99.90
37340;DHT22;23223;51.006;7.610;2023-08-24T13:52:19;28.40;99.90
37340;DHT22;23223;51.006;7.610;2023-08-24T13:54:45;28.70;99.90
37340;DHT22;23223;51.006;7.610;2023-08-24T13:57:11;28.80;99.90
37340;DHT22;23223;51.006;7.610;2023-08-24T13:59:37;28.50;99.90
37340;DHT22;23223;51.006;7.610;2023-08-24T14:02:05;28.60;99.90
37340;DHT22;23223;51.006;7.610;2023-08-24T14:04:31;28.40;99.90
37340;DHT22;23223;51.006;7.610;2023-08-24T14:06:58;28.20;99.90
37340;DHT22;23223;51.006;7.610;2023-08-24T14:09:25;28.10;99.90
37340;DHT22;23223;51.006;7.610;2023-08-24T14:11:50;28.20;99.90
37340;DHT22;23223;51.006;7.610;2023-08-24T14:14:16;28.10;99.90
37340;DHT22;23223;51.006;7.610;2023-08-24T14:16:42;28.00;99.90
37340;DHT22;23223;51.006;7.610;2023-08-24T14:19:08;27.90;99.90
37340;DHT22;23223;51.006;7.610;2023-08-24T14:21:34;28.00;99.90
37340;DHT22;23223;51.006;7.610;2023-08-24T14:23:59;28.20;99.90
37340;DHT22;23223;51.006;7.610;2023-08-24T14:26:25;28.30;99.90
37340;DHT22;23223;51.006;7.610;2023-08-24T14:28:57;28.20;99.90
37340;DHT22;23223;51.006;7.610;2023-08-24T14:31:29;28.20;99.90
37340;DHT22;23223;51.006;7.610;2023-08-24T14:33:56;27.90;99.90
37340;DHT22;23223;51.006;7.610;2023-08-24T14:36:22;27.70;99.90
37340;DHT22;23223;51.006;7.610;2023-08-24T14:38:48;27.60;99.90
37340;DHT22;23223;51.006;7.610;2023-08-24T14:41:14;27.60;99.90
37340;DHT22;23223;51.006;7.610;2023-08-24T14:43:40;27.50;99.90
37340;DHT22;23223;51.006;7.610;2023-08-24T14:46:06;27.30;99.90
37340;DHT22;23223;51.006;7.610;2023-08-24T14:48:32;27.10;99.90
37340;DHT22;23223;51.006;7.610;2023-08-24T14:50:58;26.90;99.90
37340;DHT22;23223;51.006;7.610;2023-08-24T14:53:24;26.90;99.90
37340;DHT22;23223;51.006;7.610;2023-08-24T14:55:50;26.80;99.90
37340;DHT22;23223;51.006;7.610;2023-08-24T14:58:16;26.90;99.90
37340;DHT22;23223;51.006;7.610;2023-08-24T15:00:42;27.10;99.90
37340;DHT22;23223;51.006;7.610;2023-08-24T15:03:10;27.40;99.90
37340;DHT22;23223;51.006;7.610;2023-08-24T15:05:43;27.40;99.90
37340;DHT22;23223;51.006;7.610;2023-08-24T15:08:10;27.50;99.90
37340;DHT22;23223;51.006;7.610;2023-08-24T15:10:37;27.50;99.90
37340;DHT22;23223;51.006;7.610;2023-08-24T15:13:03;27.40;99.90
37340;DHT22;23223;51.006;7.610;2023-08-24T15:15:28;27.40;99.90
37340;DHT22;23223;51.006;7.610;2023-08-24T15:17:54;27.40;99.90
37340;DHT22;23223;51.006;7.610;2023-08-24T15:20:20;27.10;99.90
37340;DHT22;23223;51.006;7.610;2023-08-24T15:22:46;27.00;99.90
37340;DHT22;23223;51.006;7.610;2023-08-24T15:25:11;27.00;99.90
37340;DHT22;23223;51.006;7.610;2023-08-24T15:27:37;27.00;99.90
37340;DHT22;23223;51.006;7.610;2023-08-24T15:30:03;26.80;99.90
37340;DHT22;23223;51.006;7.610;2023-08-24T15:32:31;26.70;99.90